x

Cape Edgecumbe - 25nm Ssw Of Cape Edgecumbe, Ak (46084) Wave Buoy

4:50am - Tue 22nd Jul 2014 All times are AKDT. -8 hours from GMT.

  • Sig Wave height 4.9ft
  • Peak Period 8s
  • Average Period 6s
  • Wind
    13mph, 16mph gusts
  • Sea Temp 58°f
  • Air Temp 57°f
  • Sea Pressure 1016.5mb
  • Cape Edgecumbe - 25nm Ssw Of Cape Edgecumbe, Ak
  • Cape Edgecumbe - 25nm Ssw Of Cape Edgecumbe, Ak

More Historic Weather Station data

Upgrade to MSW Pro to gain access to the past 30 days of data for over 8000 Wavebouys and Weather Stations around the globe.

Join Pro

Comparision Forecast

View Surf forecast
   
Tue 07/22 4:50am 5ft 8s 6s 13 16 mph 1016.5mb 58f 57f
3:50am 4.5ft 8s 6s 13 16 mph 1016.5mb 58f 58f
2:50am 4.5ft 10s 6s 13 16 mph 1016.7mb 58f 57f
1:50am 4.5ft 8s 6s 13 18 mph 1016.7mb 58f 57f
12:50am 4.5ft 9s 6s 11 13 mph 1016.4mb 58f 57f
Mon 07/21 11:50pm 5ft 8s 6s 11 13 mph 1016.3mb 58f 58f
10:50pm 4.5ft 9s 6s 9 11 mph 1016.1mb 58f 58f
9:50pm 4.5ft 8s 6s 11
mph
1015.9mb 58f 58f
8:50pm 4.5ft 9s 6s 11 13 mph 1015.6mb 58f 58f
7:50pm 4.5ft 8s 6s 11 16 mph 1015.1mb 58f 58f
6:50pm 5ft 8s 6s 13 16 mph 1014.8mb 58f 58f
5:50pm 4.5ft 9s 6s 13 16 mph 1014.4mb 58f 58f
4:50pm 4.5ft 9s 6s 13 16 mph 1014.1mb 58f 58f
3:50pm 4.5ft 9s 7s 11 13 mph 1013.9mb 58f 59f
2:50pm 5ft 9s 7s 11
mph
1013.7mb 58f 58f
1:50pm 5ft 10s 7s 7 9 mph 1013.5mb 58f 58f
12:50pm 5ft 9s 6s 7
mph
1012.9mb 58f 58f
11:50am 5ft 8s 6s 7
mph
1012.4mb 57f 58f
10:50am 4.5ft 8s 6s 7 9 mph 1012.1mb 57f 58f
9:50am 5ft 8s 6s 7 9 mph 1011.5mb 57f 57f
8:50am 5ft 9s 6s 4 7 mph 1011.2mb 57f 57f
7:50am 5ft 8s 6s 2
mph
1010.4mb 57f 56f
6:50am 5.5ft 9s 6s 4 7 mph 1010mb 57f 55f
5:50am 5.5ft 8s 6s 7 9 mph 1009.6mb 57f 55f
4:50am 6ft 8s 6s 9 11 mph 1009.3mb 57f 55f
3:50am 6ft 8s 5s 13 16 mph 1008.8mb 57f 55f
2:50am 5.5ft 8s 5s 18 22 mph 1008.3mb 57f 55f
1:50am 6ft 8s 6s 18 25 mph 1008mb 57f 55f
12:50am 5.5ft 10s 6s 16 18 mph 1008mb 57f 55f
Sun 07/20 11:50pm 5ft 8s 6s 13 16 mph 1008mb 57f 55f
10:50pm 5.5ft 8s 6s 11 13 mph 1008mb 57f 55f
9:50pm 5ft 8s 6s 9
mph
1008.2mb 57f 55f
8:50pm 5ft 9s 6s 9 11 mph 1008.3mb 57f 56f
7:50pm 5.5ft 10s 6s 9 11 mph 1008.5mb 57f 56f
6:50pm 6ft 9s 6s 11 16 mph 1008.8mb 57f 56f
5:50pm 6ft 10s 6s 16 18 mph 1009.1mb 57f 56f
4:50pm 6ft 8s 6s 11 13 mph 1009.6mb 57f 55f
3:50pm 5.5ft 10s 5s 18 22 mph 1010.1mb 57f 56f
2:50pm 5.5ft 10s 6s 16 18 mph 1010.6mb 57f 57f
1:50pm 6ft 10s 6s 11 13 mph 1011mb 58f 56f
12:50pm 6ft 10s 6s 16 20 mph 1011.2mb 58f 56f
11:50am 5.5ft 10s 6s 13 18 mph 1011.5mb 58f 55f
10:50am 6ft 10s 6s 13 18 mph 1011.6mb 57f 56f
9:50am 5.5ft 10s 6s 13 16 mph 1011.9mb 57f 56f
8:50am 6ft 10s 6s 13
mph
1012mb 57f 56f
7:50am 6ft 8s 6s 11 16 mph 1012mb 57f 56f
6:50am 6.5ft 10s 6s 11 13 mph 1012.4mb 57f 56f
5:50am 6ft 10s 6s 13 16 mph 1012.7mb 57f 57f
4:50am 6.5ft 11s 6s 11 13 mph 1013.1mb 57f 57f
3:50am 6ft 11s 6s 11 13 mph 1013.4mb 57f 57f
2:50am 6.5ft 11s 7s 9 11 mph 1013.5mb 57f 57f
1:50am 6ft 10s 7s 9 11 mph 1013.6mb 57f 57f
12:50am 7ft 11s 7s 11 13 mph 1013.6mb 57f 57f
Sat 07/19 11:50pm 6ft 11s 7s 11
mph
1013.5mb 57f 57f
10:50pm 6ft 11s 7s 11
mph
1013.3mb 57f 57f
9:50pm 6.5ft 11s 7s 9
mph
1013mb 57f 57f
8:50pm 6ft 11s 7s 11
mph
1012.8mb 57f 57f
7:50pm 6.5ft 11s 7s 11 13 mph 1012.9mb 57f 57f
6:50pm 7ft 11s 7s 13 18 mph 1012.8mb 57f 57f
5:50pm 6ft 9s 6s 11 13 mph 1012.9mb 57f 57f
4:50pm 7ft 11s 7s 13 16 mph 1012.8mb 57f 58f
3:50pm 6.5ft 11s 6s 13 16 mph 1012.8mb 57f 57f
2:50pm 6ft 11s 6s 13 18 mph 1012.5mb 57f 57f
1:50pm 5.5ft 11s 6s 13 16 mph 1012.2mb 57f 57f
12:50pm 6ft 11s 6s 11 13 mph 1011.8mb 57f 57f
11:50am 6ft 11s 6s 18 20 mph 1011.3mb 57f 57f
10:50am 6ft 11s 5s 18 22 mph 1010.5mb 57f 57f
9:50am 6ft 11s 6s 18 22 mph 1010mb 57f 57f
8:50am 5.5ft 9s 5s 20 22 mph 1009.2mb 57f 57f
7:50am 5ft 5s 5s 18 22 mph 1008.5mb 57f 57f
6:50am 5.5ft 9s 5s 18 20 mph 1007.8mb 57f 57f
5:50am 6ft 10s 6s 18 22 mph 1007.3mb 57f 57f
4:50am 6ft 10s 6s 20 25 mph 1006.7mb 57f 57f
3:50am 5.5ft 9s 6s 18 22 mph 1006.6mb 57f 57f
2:50am 5ft 9s 6s 16 20 mph 1006.3mb 57f 57f
1:50am 5ft 9s 6s 18 22 mph 1005.8mb 58f 57f
12:50am 5ft 9s 7s 13 18 mph 1005.4mb 58f 57f
Fri 07/18 11:50pm 5.5ft 8s 7s 7
mph
1005.1mb 58f 57f
10:50pm 5ft 9s 7s 4
mph
1005mb 58f 56f
9:50pm 5ft 8s 7s  -  2 mph 1004.7mb 58f 56f
8:50pm 5ft 9s 7s 2
mph
1004.3mb 58f 56f
7:50pm 4.5ft 9s 7s 2
mph
1004.4mb 58f 56f
6:50pm 4.5ft 8s 7s 2 4 mph 1004.5mb 58f 56f
5:50pm 5ft 9s 7s 2 4 mph 1004.5mb 58f 56f
4:50pm 4.5ft 8s 6s 4
mph
1005.1mb 59f 56f
3:50pm 4.5ft 8s 6s 4 7 mph 1005.3mb 58f 56f
2:50pm 4ft 7s 6s 4 7 mph 1005.7mb 58f 56f